Tolhuin, Argentina

6:12 PM ART on August 27, 2015 (GMT -0300)
Ushuaia International Malvine Island | | Change Station
CLOSE
Current Station
Airport
Location: Ushuaia,
Elevation: 69 ft
Nearby Weather Stations

Elev 69 ft 54.84 °S, 68.31 °W | Updated 12 minutes ago

Overcast
Overcast
43 °F
Feels Like 34 °F
N
23
Wind Variable Wind from NNE

Today
High -- | Low -- °F
--% Chance of Precip.
Yesterday
High -- | Low -- °F
Precip. -- in
8:22 AM 6:39 PM
Waxing Gibbous, 95% visible
Pressure 29.30 in
Visibility 6.2 miles
Clouds Mostly Cloudy 3000 ft
Overcast 5000 ft
Windchill 34 °F
Dew Point 36 °F
Humidity 76%
Rainfall 0.00 in
Snow Depth Not available.
UV 0 out of 12
Pollen Not available.
Air Quality Not available.
Flu Activity Not available.
METAR SAWH 272100Z 02020KT 9999 BKN030 OVC050 06/02 Q0992
Pressure 29.30 in
Visibility 6.2 miles
Clouds Mostly Cloudy 3000 ft
Overcast 5000 ft
Windchill 34 °F
Dew Point 36 °F
Humidity 76%
Rainfall 0.00 in
Snow Depth Not available.
UV 0 out of 12
Pollen Not available.
Air Quality Not available.
Flu Activity Not available.
METAR SAWH 272100Z 02020KT 9999 BKN030 OVC050 06/02 Q0992

10-Day Weather Forecast

×

Almanac

Astronomy

Aug. 27, 2015 Rise Set
Actual Time
Civil Twilight
Nautical Twilight
Astronomical Twilight
Moon
Length of Visible Light
Length of Day
Tomorrow will be .
, % of the Moon is Illuminated

Today's Extremes

Country Highs Country Lows

Community

WunderPhotos

Upload Photos

1,850,222 photos uploaded!

WunderBlogs® & News

Nearby

Air Quality

  Air Quality AQ Index Pollutant
Not available.

Snow Depth

Station Depth Elevation

Earthquake Activity

City Distance Mag. Time & Date
Minimum magnitude displayed is 2.5.

Coastal Water Temperatures

Place Temperature

Stations

Nearby Weather Stations

Station Location Temp. Windchill Dew Point Humidity Wind Precip. Elev Updated Type